Time;durP1;ratioP1;P1;durP2;ratioP2;P2;SDS_P1;SDS_P2;PMS_P1;PMS_P2;Temp;Humidity;BMP_temperature;BMP_pressure;BME280_temperature;BME280_humidity;BME280_pressure;Samples;Min_cycle;Max_cycle;Signal;HPM_P1;HPM_P2
2024/01/24 00:00:47;;;;;;;3.57;3.47;;;;;;;1.46;68.05;96234.38;5091517;28;20436;-58
2024/01/24 00:03:16;;;;;;;5.17;3.83;;;;;;;1.46;68.10;96232.59;5091037;28;21005;-58
2024/01/24 00:05:46;;;;;;;8.70;3.97;;;;;;;1.16;68.18;96199.81;5090641;28;20821;-57
2024/01/24 00:08:14;;;;;;;2.87;2.53;;;;;;;1.39;68.05;96231.75;5091798;28;20433;-57
2024/01/24 00:10:43;;;;;;;2.83;2.63;;;;;;;1.33;68.37;96240.31;5090539;28;20436;-57
2024/01/24 00:13:13;;;;;;;3.73;2.70;;;;;;;1.13;68.00;96216.66;5091004;28;20549;-57
2024/01/24 00:15:41;;;;;;;1.70;1.60;;;;;;;1.37;68.32;96254.59;5091057;28;20442;-57
2024/01/24 00:18:10;;;;;;;7.73;2.67;;;;;;;1.27;68.45;96243.69;5091029;28;20432;-58
2024/01/24 00:20:39;;;;;;;15.07;0.97;;;;;;;1.38;68.30;96252.81;5090258;28;20949;-57
2024/01/24 00:23:07;;;;;;;1.83;1.43;;;;;;;1.34;68.38;96268.06;5092498;28;20476;-58
2024/01/24 00:25:36;;;;;;;1.83;1.73;;;;;;;1.28;68.76;96253.94;5095247;28;20439;-58
2024/01/24 00:28:06;;;;;;;2.93;1.43;;;;;;;0.91;69.16;96203.81;5095510;28;20440;-58
2024/01/24 00:30:36;;;;;;;2.37;2.23;;;;;;;1.25;68.75;96262.16;5094772;28;20523;-57
2024/01/24 00:33:05;;;;;;;2.80;2.27;;;;;;;1.28;68.94;96256.56;5095345;28;20808;-58
2024/01/24 00:35:34;;;;;;;2.33;2.13;;;;;;;1.36;68.38;96252.19;5094551;28;20440;-57
2024/01/24 00:38:03;;;;;;;2.27;1.13;;;;;;;1.38;68.33;96251.00;5095529;28;20443;-58
2024/01/24 00:40:31;;;;;;;1.80;1.70;;;;;;;1.31;68.64;96247.53;5094928;28;20436;-59
2024/01/24 00:43:01;;;;;;;3.63;2.17;;;;;;;1.23;68.93;96242.44;5095539;28;20515;-59
2024/01/24 00:45:29;;;;;;;3.03;1.80;;;;;;;1.28;69.20;96267.00;5088564;28;20837;-58
2024/01/24 00:47:59;;;;;;;1.10;1.07;;;;;;;1.32;69.20;96261.41;5088013;28;20452;-57
2024/01/24 00:50:28;;;;;;;1.33;1.23;;;;;;;1.26;68.91;96263.75;5068701;28;20472;-58
2024/01/24 00:52:57;;;;;;;11.23;1.60;;;;;;;1.09;69.34;96246.75;5094415;28;20443;-57
2024/01/24 00:55:27;;;;;;;3.20;2.67;;;;;;;0.93;69.99;96233.16;5094692;28;20436;-57
2024/01/24 00:57:56;;;;;;;4.40;2.23;;;;;;;1.25;69.80;96256.94;5094451;28;20438;-57
2024/01/24 01:00:24;;;;;;;1.27;1.17;;;;;;;1.11;68.91;96242.13;5094524;28;20444;-57
2024/01/24 01:02:53;;;;;;;1.80;1.60;;;;;;;1.23;69.13;96269.38;5094411;28;20535;-57
2024/01/24 01:05:24;;;;;;;16.93;2.47;;;;;;;1.24;69.42;96270.16;5094680;28;20440;-57
2024/01/24 01:07:53;;;;;;;1.60;1.07;;;;;;;1.09;69.16;96257.19;5091220;28;20441;-57
2024/01/24 01:10:22;;;;;;;3.80;1.60;;;;;;;0.77;69.79;96196.84;5084951;28;20440;-57
2024/01/24 01:12:50;;;;;;;1.97;1.87;;;;;;;1.25;69.33;96283.03;5094354;28;20886;-57
2024/01/24 01:15:19;;;;;;;2.20;2.00;;;;;;;1.08;69.33;96273.84;5094723;28;20460;-57
2024/01/24 01:17:48;;;;;;;3.60;1.67;;;;;;;1.20;70.12;96284.59;5094599;28;20478;-57
2024/01/24 01:20:19;;;;;;;1.60;1.50;;;;;;;1.25;70.34;96280.44;5094743;28;20440;-57
2024/01/24 01:22:49;;;;;;;3.13;2.40;;;;;;;1.27;70.49;96286.28;5094082;28;20482;-56
2024/01/24 01:25:18;;;;;;;7.23;2.63;;;;;;;-0.01;69.93;96075.16;5094663;28;20454;-56
2024/01/24 01:27:46;;;;;;;2.40;2.00;;;;;;;0.71;70.10;96190.56;5068226;28;20435;-57
2024/01/24 01:30:17;;;;;;;4.10;1.63;;;;;;;1.03;70.64;96262.34;5094637;28;20440;-56
2024/01/24 01:32:46;;;;;;;1.83;1.73;;;;;;;0.95;70.68;96263.28;5093413;28;20472;-57
2024/01/24 01:35:15;;;;;;;5.73;2.30;;;;;;;0.97;70.79;96253.47;5092803;28;20435;-57
2024/01/24 01:37:43;;;;;;;4.50;2.23;;;;;;;1.07;70.13;96255.75;5094519;28;20501;-57
2024/01/24 01:40:14;;;;;;;2.30;2.20;;;;;;;1.03;70.86;96257.13;5094038;28;20440;-57
2024/01/24 01:42:46;;;;;;;2.70;1.57;;;;;;;1.11;70.29;96260.41;5093336;28;20476;-58
2024/01/24 01:45:14;;;;;;;1.97;1.73;;;;;;;0.74;69.91;96203.25;5093934;28;20512;-59
2024/01/24 01:47:44;;;;;;;26.17;4.27;;;;;;;1.01;70.48;96248.69;5093021;28;20982;-58
2024/01/24 01:50:15;;;;;;;5.23;2.40;;;;;;;0.57;72.84;96246.22;5092584;28;20522;-57
2024/01/24 01:52:45;;;;;;;1.80;1.70;;;;;;;0.44;74.52;96241.69;5092231;28;20444;-57
2024/01/24 01:55:16;;;;;;;7.50;3.60;;;;;;;0.13;75.43;96201.22;5093420;28;20433;-58
2024/01/24 01:57:45;;;;;;;15.43;4.47;;;;;;;-0.02;76.53;96227.28;5093252;28;20440;-57
2024/01/24 02:00:20;;;;;;;10.67;3.70;;;;;;;-0.11;78.23;96247.44;5093638;28;20470;-58
2024/01/24 02:02:49;;;;;;;4.00;2.30;;;;;;;-0.10;78.84;96228.19;5093124;28;20475;-58
2024/01/24 02:05:18;;;;;;;11.63;3.20;;;;;;;0.02;79.37;96238.16;5093868;28;20440;-58
2024/01/24 02:07:47;;;;;;;3.27;3.00;;;;;;;0.24;78.29;96255.47;5092982;28;20479;-58
2024/01/24 02:10:17;;;;;;;3.83;3.53;;;;;;;0.44;76.10;96249.50;5093172;28;21078;-58
2024/01/24 02:12:46;;;;;;;5.90;4.10;;;;;;;0.46;75.81;96249.31;5093206;28;20512;-57
2024/01/24 02:15:14;;;;;;;5.47;2.47;;;;;;;0.45;75.72;96235.50;5092886;28;20436;-58
2024/01/24 02:17:43;;;;;;;3.17;2.97;;;;;;;0.55;74.52;96243.81;5087927;28;20745;-58
2024/01/24 02:20:13;;;;;;;2.93;2.83;;;;;;;0.44;74.94;96243.47;5084912;28;20475;-58
2024/01/24 02:22:42;;;;;;;4.57;3.30;;;;;;;0.30;76.86;96228.69;5092759;28;20480;-58
2024/01/24 02:25:12;;;;;;;17.00;2.40;;;;;;;0.31;77.69;96248.53;5093197;28;20436;-58
2024/01/24 02:27:41;;;;;;;2.23;2.13;;;;;;;0.41;76.55;96249.06;5092842;28;20463;-58
2024/01/24 02:30:13;;;;;;;4.53;3.10;;;;;;;0.52;75.72;96253.81;5091983;28;20481;-57
2024/01/24 02:32:42;;;;;;;7.93;3.13;;;;;;;0.55;75.27;96261.25;5092840;28;20460;-58
2024/01/24 02:35:10;;;;;;;1.67;1.57;;;;;;;0.58;74.32;96251.25;5092005;28;20436;-58
2024/01/24 02:37:39;;;;;;;5.20;2.10;;;;;;;0.51;74.57;96253.00;5093321;28;20457;-58
2024/01/24 02:40:09;;;;;;;2.70;1.67;;;;;;;0.56;73.62;96255.03;5092221;28;20436;-57
2024/01/24 02:42:39;;;;;;;8.43;2.20;;;;;;;0.59;73.12;96260.72;5092567;28;20991;-57
2024/01/24 02:45:08;;;;;;;2.83;2.20;;;;;;;0.45;73.53;96237.28;5091845;28;20519;-57
2024/01/24 02:47:38;;;;;;;2.80;2.60;;;;;;;0.38;73.63;96221.53;5092190;28;20493;-58
2024/01/24 02:50:07;;;;;;;7.10;3.63;;;;;;;0.47;73.81;96245.72;5092068;28;20439;-58
2024/01/24 02:52:40;;;;;;;1.23;1.13;;;;;;;0.53;73.70;96237.97;5092460;28;20975;-57
2024/01/24 02:55:13;;;;;;;3.00;2.73;;;;;;;0.30;73.10;96202.63;5092016;28;20451;-57
2024/01/24 02:57:43;;;;;;;2.40;2.20;;;;;;;0.55;73.67;96243.00;5079453;28;20548;-58
2024/01/24 03:00:13;;;;;;;2.13;2.03;;;;;;;0.19;73.10;96184.84;5091912;28;20465;-57
2024/01/24 03:02:42;;;;;;;1.63;1.20;;;;;;;0.17;73.36;96203.28;5091975;28;20467;-56
2024/01/24 03:05:11;;;;;;;2.53;2.20;;;;;;;0.25;73.14;96204.97;5092450;28;20436;-58
2024/01/24 03:07:41;;;;;;;2.30;2.20;;;;;;;0.04;73.35;96176.22;5092175;28;20525;-57
2024/01/24 03:10:09;;;;;;;5.00;3.13;;;;;;;0.57;73.17;96264.50;5092469;28;20467;-58
2024/01/24 03:12:38;;;;;;;3.47;2.17;;;;;;;0.38;73.95;96258.03;5092131;28;20921;-57
2024/01/24 03:15:10;;;;;;;2.60;1.20;;;;;;;0.43;73.56;96278.38;5092311;28;20486;-58
2024/01/24 03:17:39;;;;;;;4.63;2.90;;;;;;;0.44;73.65;96269.56;5092167;28;20866;-57
2024/01/24 03:20:10;;;;;;;3.00;2.10;;;;;;;0.39;74.00;96279.72;5091989;28;21002;-58
2024/01/24 03:22:39;;;;;;;3.40;1.73;;;;;;;0.47;73.88;96271.81;5091826;28;20952;-58
2024/01/24 03:25:09;;;;;;;2.07;1.97;;;;;;;0.43;73.95;96271.34;5092318;28;20444;-57
2024/01/24 03:27:39;;;;;;;8.97;3.37;;;;;;;0.44;73.52;96266.94;5091735;28;20501;-57
2024/01/24 03:30:10;;;;;;;3.73;3.50;;;;;;;0.50;74.01;96261.81;5091922;28;20520;-58
2024/01/24 03:32:39;;;;;;;2.07;1.93;;;;;;;0.52;73.46;96259.03;5066327;28;20436;-57
2024/01/24 03:35:10;;;;;;;1.40;1.40;;;;;;;-0.30;73.69;96138.56;5092089;28;20459;-57
2024/01/24 03:37:38;;;;;;;2.13;1.60;;;;;;;0.41;74.04;96255.09;5091597;28;20435;-57
2024/01/24 03:40:08;;;;;;;4.90;1.30;;;;;;;0.53;73.63;96271.88;5091163;28;20815;-57
2024/01/24 03:42:37;;;;;;;2.53;2.40;;;;;;;0.40;74.09;96260.50;5091350;28;20433;-57
2024/01/24 03:45:08;;;;;;;4.70;2.17;;;;;;;0.39;73.88;96269.28;5091641;28;20432;-58
2024/01/24 03:47:37;;;;;;;1.60;1.50;;;;;;;0.47;73.79;96267.41;5091539;28;20798;-57
2024/01/24 03:50:07;;;;;;;4.30;1.63;;;;;;;0.28;73.87;96225.47;5091179;28;20486;-58
2024/01/24 03:52:35;;;;;;;1.17;1.07;;;;;;;0.56;73.61;96263.69;5091516;28;20443;-58
2024/01/24 03:55:05;;;;;;;2.43;1.37;;;;;;;0.46;73.25;96254.53;5090954;28;20440;-58
2024/01/24 03:57:34;;;;;;;2.80;2.33;;;;;;;0.34;73.34;96240.34;5090760;28;20459;-57
2024/01/24 04:00:05;;;;;;;5.10;2.40;;;;;;;-0.45;77.02;96260.16;5090892;28;20509;-57
2024/01/24 04:02:35;;;;;;;1.73;1.63;;;;;;;-0.06;79.68;96258.13;5091170;28;20459;-57
2024/01/24 04:05:04;;;;;;;2.93;2.83;;;;;;;0.09;77.74;96263.31;5090945;28;20480;-57
2024/01/24 04:07:33;;;;;;;2.07;1.97;;;;;;;0.05;77.10;96271.69;5091089;28;20460;-56
2024/01/24 04:10:03;;;;;;;6.17;2.87;;;;;;;-0.05;77.49;96277.13;5091506;28;20437;-57
2024/01/24 04:12:32;;;;;;;3.17;2.50;;;;;;;-0.07;78.17;96285.16;5091101;28;20443;-57
2024/01/24 04:15:01;;;;;;;4.60;4.23;;;;;;;0.00;76.83;96285.25;5090848;28;20436;-57
2024/01/24 04:17:30;;;;;;;3.07;1.93;;;;;;;0.11;76.08;96290.00;5091005;28;21052;-57
2024/01/24 04:20:00;;;;;;;7.07;3.53;;;;;;;0.14;75.45;96294.03;5090480;28;20443;-58
2024/01/24 04:22:29;;;;;;;16.70;3.93;;;;;;;0.17;74.52;96280.66;5091341;28;20924;-57
2024/01/24 04:24:58;;;;;;;1.90;1.80;;;;;;;0.36;74.10;96300.94;5090780;28;20549;-58
2024/01/24 04:27:27;;;;;;;3.03;2.43;;;;;;;0.26;73.92;96314.25;5091204;28;20429;-57
2024/01/24 04:29:56;;;;;;;3.30;3.03;;;;;;;0.10;74.65;96308.44;5091338;28;20436;-58
2024/01/24 04:32:24;;;;;;;3.63;3.33;;;;;;;-0.01;75.64;96315.72;5090818;28;20470;-58
2024/01/24 04:34:53;;;;;;;1.37;1.27;;;;;;;-0.16;76.48;96322.72;5091319;28;20928;-57
2024/01/24 04:37:27;;;;;;;5.70;3.43;;;;;;;-0.15;76.32;96323.50;5091036;28;20444;-56
2024/01/24 04:39:55;;;;;;;6.40;2.03;;;;;;;-0.25;76.60;96308.13;5090771;28;21009;-57
2024/01/24 04:42:24;;;;;;;3.20;2.87;;;;;;;-0.04;75.79;96321.28;5091085;28;20497;-56
2024/01/24 04:44:53;;;;;;;2.97;2.37;;;;;;;0.03;75.71;96337.00;5090757;28;20475;-58
2024/01/24 04:47:22;;;;;;;3.67;2.40;;;;;;;-0.02;75.74;96334.94;5091226;28;20941;-57
2024/01/24 04:49:50;;;;;;;3.73;3.53;;;;;;;0.06;75.13;96349.69;5090954;28;20439;-57
2024/01/24 04:52:19;;;;;;;2.30;2.20;;;;;;;-0.09;75.25;96323.63;5090812;28;20523;-57
2024/01/24 04:54:50;;;;;;;3.90;2.60;;;;;;;-0.09;75.07;96335.81;5090452;28;20468;-58
2024/01/24 04:57:19;;;;;;;2.13;1.93;;;;;;;-0.05;75.66;96345.72;5090430;28;20498;-58
2024/01/24 04:59:48;;;;;;;4.17;3.77;;;;;;;-0.17;76.52;96341.94;5090322;28;20493;-58
2024/01/24 05:02:23;;;;;;;4.87;3.90;;;;;;;-0.40;78.36;96322.94;5090714;28;20471;-57
2024/01/24 05:04:52;;;;;;;6.43;5.20;;;;;;;-0.47;78.07;96288.16;5090379;28;20480;-56
2024/01/24 05:07:21;;;;;;;3.30;3.10;;;;;;;-0.07;76.56;96339.88;5090639;28;20466;-58
2024/01/24 05:09:51;;;;;;;2.67;2.57;;;;;;;-0.26;75.98;96319.56;5066570;28;20440;-56
2024/01/24 05:12:20;;;;;;;2.40;2.30;;;;;;;-0.05;76.34;96345.72;5093319;28;20439;-57
2024/01/24 05:14:48;;;;;;;8.40;3.40;;;;;;;-0.07;76.34;96352.91;5094537;28;20502;-58
2024/01/24 05:17:17;;;;;;;3.53;2.83;;;;;;;-0.01;76.35;96362.63;5093650;28;20432;-57
2024/01/24 05:19:45;;;;;;;4.47;4.17;;;;;;;0.00;75.86;96359.00;5094706;28;20444;-57
2024/01/24 05:22:15;;;;;;;3.53;3.33;;;;;;;-0.63;75.45;96267.47;5093907;28;20436;-56
2024/01/24 05:24:45;;;;;;;8.33;4.40;;;;;;;0.02;75.01;96364.06;5094055;28;20533;-57
2024/01/24 05:27:16;;;;;;;2.93;2.67;;;;;;;0.00;74.72;96355.63;5093818;28;20440;-56
2024/01/24 05:29:46;;;;;;;4.80;3.97;;;;;;;0.14;74.63;96359.22;5093502;28;20501;-57
2024/01/24 05:32:15;;;;;;;2.90;2.03;;;;;;;0.07;74.73;96358.31;5093065;28;20520;-57
2024/01/24 05:34:43;;;;;;;3.23;2.57;;;;;;;0.00;75.26;96356.41;5093559;28;21010;-54
2024/01/24 05:37:12;;;;;;;3.23;3.03;;;;;;;0.03;74.78;96359.66;5089042;28;20518;-56
2024/01/24 05:39:41;;;;;;;9.00;3.17;;;;;;;-0.05;74.87;96376.16;5092806;28;20494;-57
2024/01/24 05:42:11;;;;;;;3.33;3.13;;;;;;;0.00;74.68;96366.03;5093652;28;20921;-57
2024/01/24 05:44:41;;;;;;;7.33;6.73;;;;;;;0.06;75.04;96361.91;5093034;28;20472;-57
2024/01/24 05:47:10;;;;;;;7.43;5.37;;;;;;;-0.46;74.64;96297.59;5093429;28;20440;-56
2024/01/24 05:49:39;;;;;;;4.83;4.43;;;;;;;0.19;74.60;96367.31;5093328;28;20440;-57
2024/01/24 05:52:08;;;;;;;6.00;3.87;;;;;;;-0.01;75.92;96372.22;5093189;28;20473;-57
2024/01/24 05:54:36;;;;;;;6.50;6.10;;;;;;;-0.01;76.38;96380.88;5092998;28;20480;-58
2024/01/24 05:57:05;;;;;;;4.30;3.23;;;;;;;-0.21;76.21;96335.47;5093562;28;20437;-58
2024/01/24 05:59:34;;;;;;;5.40;4.90;;;;;;;-0.20;75.58;96342.28;5093116;28;21148;-59
2024/01/24 06:02:05;;;;;;;12.60;4.93;;;;;;;0.08;76.04;96381.56;5093509;28;20534;-59
2024/01/24 06:04:33;;;;;;;8.00;3.00;;;;;;;0.32;75.22;96385.75;5093533;28;20482;-57
2024/01/24 06:07:02;;;;;;;4.77;4.40;;;;;;;0.38;74.48;96388.44;5093055;28;20437;-57
2024/01/24 06:09:31;;;;;;;5.27;4.97;;;;;;;0.35;74.27;96388.81;5093772;28;20855;-57
2024/01/24 06:12:01;;;;;;;14.70;5.80;;;;;;;-0.21;76.07;96369.34;5093128;28;20425;-58
2024/01/24 06:14:29;;;;;;;12.13;5.80;;;;;;;-0.05;77.09;96383.97;5093075;28;20448;-57
2024/01/24 06:16:58;;;;;;;9.93;4.77;;;;;;;0.08;76.47;96386.78;5093114;28;20440;-57
2024/01/24 06:19:28;;;;;;;5.70;5.30;;;;;;;0.19;75.63;96375.13;5093665;28;20448;-57
2024/01/24 06:21:57;;;;;;;5.47;4.33;;;;;;;0.37;74.89;96372.97;5092573;28;20621;-57
2024/01/24 06:24:25;;;;;;;12.40;5.17;;;;;;;0.14;74.33;96328.75;5092948;28;20464;-57
2024/01/24 06:26:54;;;;;;;9.63;4.10;;;;;;;0.49;79.13;96377.56;5093285;28;20863;-58
2024/01/24 06:29:22;;;;;;;7.03;6.33;;;;;;;0.41;78.12;96382.03;5092655;28;20963;-57
2024/01/24 06:32:11;;;;;;;13.57;7.47;;;;;;;0.25;78.96;96383.06;5086647;28;20436;-57
2024/01/24 06:34:41;;;;;;;7.60;6.90;;;;;;;-0.40;80.58;96304.69;5092766;28;20444;-57
2024/01/24 06:37:10;;;;;;;15.77;6.77;;;;;;;-0.06;80.06;96380.59;5092671;28;20515;-58
2024/01/24 06:39:39;;;;;;;9.80;7.13;;;;;;;0.23;77.70;96381.63;5092471;28;20440;-58
2024/01/24 06:42:08;;;;;;;16.93;12.03;;;;;;;0.46;75.15;96379.72;5092939;28;20440;-57
2024/01/24 06:44:36;;;;;;;26.40;9.73;;;;;;;0.92;73.42;96375.88;5092838;28;20483;-57
2024/01/24 06:47:05;;;;;;;23.97;9.07;;;;;;;1.32;70.29;96358.81;5092231;28;20801;-57
2024/01/24 06:49:34;;;;;;;26.53;10.87;;;;;;;2.10;70.79;96384.81;5092605;28;20467;-57
2024/01/24 06:52:04;;;;;;;18.77;9.40;;;;;;;2.53;70.22;96381.06;5092636;28;20480;-57
2024/01/24 06:54:35;;;;;;;7.63;4.20;;;;;;;2.63;69.62;96372.09;5091980;28;20476;-56
2024/01/24 06:57:04;;;;;;;5.47;4.40;;;;;;;2.97;67.00;96374.63;5092250;28;20451;-56
2024/01/24 06:59:33;;;;;;;4.50;3.20;;;;;;;3.98;65.00;96390.16;5092178;28;20446;-56
2024/01/24 07:02:03;;;;;;;3.30;3.00;;;;;;;4.37;63.99;96369.16;5091942;28;20436;-56
2024/01/24 07:04:32;;;;;;;6.73;4.10;;;;;;;4.71;61.07;96344.41;5092035;28;20436;-57
2024/01/24 07:07:01;;;;;;;2.80;2.60;;;;;;;4.60;60.94;96386.25;5092356;28;20515;-58
2024/01/24 07:09:31;;;;;;;4.57;3.40;;;;;;;4.88;60.52;96384.94;5091994;28;20445;-57
2024/01/24 07:12:02;;;;;;;17.53;4.70;;;;;;;5.01;61.40;96387.53;5091949;28;20436;-56
2024/01/24 07:14:30;;;;;;;3.83;3.63;;;;;;;5.07;60.62;96383.28;5091479;28;20429;-56
2024/01/24 07:17:00;;;;;;;10.57;6.10;;;;;;;5.65;58.74;96370.81;5092490;28;20489;-56
2024/01/24 07:19:28;;;;;;;7.60;3.50;;;;;;;5.13;59.38;96385.84;5091497;28;20443;-56
2024/01/24 07:21:57;;;;;;;4.30;3.73;;;;;;;5.60;57.45;96381.16;5091710;28;20540;-56
2024/01/24 07:24:30;;;;;;;10.30;4.40;;;;;;;5.90;57.21;96379.59;5091549;28;20425;-56
2024/01/24 07:26:59;;;;;;;6.07;4.10;;;;;;;6.06;56.54;96370.34;5091298;28;20559;-56
2024/01/24 07:29:28;;;;;;;8.10;3.97;;;;;;;6.60;55.29;96367.84;5091947;28;20474;-56
2024/01/24 07:31:56;;;;;;;7.33;4.80;;;;;;;6.11;55.18;96360.00;5091232;28;20432;-56
2024/01/24 07:34:25;;;;;;;3.60;3.40;;;;;;;6.53;56.71;96368.94;5091134;28;20432;-56
2024/01/24 07:36:54;;;;;;;4.77;4.57;;;;;;;7.07;53.87;96363.66;5091619;28;20523;-56
2024/01/24 07:39:22;;;;;;;6.93;4.63;;;;;;;7.36;54.08;96373.41;5091729;28;20443;-57
2024/01/24 07:41:53;;;;;;;4.83;4.47;;;;;;;7.61;54.60;96376.72;5091022;28;20440;-58
2024/01/24 07:44:22;;;;;;;10.07;3.53;;;;;;;7.88;51.75;96316.44;5091625;28;20535;-58
2024/01/24 07:46:51;;;;;;;4.43;4.13;;;;;;;8.66;50.49;96335.41;5090554;28;20503;-58
2024/01/24 07:49:19;;;;;;;4.27;3.60;;;;;;;9.24;49.98;96352.97;5085342;28;20465;-59
2024/01/24 07:51:49;;;;;;;4.60;4.40;;;;;;;9.11;48.26;96295.88;5086945;28;20444;-59
2024/01/24 07:54:22;;;;;;;9.83;7.47;;;;;;;9.02;49.25;96344.88;5091269;28;20476;-58
2024/01/24 07:56:53;;;;;;;12.53;6.67;;;;;;;9.03;49.62;96337.75;5090749;28;20740;-57
2024/01/24 07:59:21;;;;;;;6.30;5.10;;;;;;;9.48;48.65;96336.00;5091656;28;20521;-58
2024/01/24 08:01:51;;;;;;;19.43;9.87;;;;;;;9.06;49.96;96338.09;5091252;28;20925;-59
2024/01/24 08:04:20;;;;;;;19.67;6.97;;;;;;;9.06;49.57;96273.84;5090872;28;20438;-57
2024/01/24 08:06:48;;;;;;;13.13;8.67;;;;;;;9.93;46.90;96352.66;5090349;28;20558;-56
2024/01/24 08:09:18;;;;;;;15.17;7.50;;;;;;;9.90;47.00;96362.94;5091326;28;20436;-56
2024/01/24 08:11:47;;;;;;;8.27;5.80;;;;;;;9.44;48.07;96348.88;5091029;28;20774;-57
2024/01/24 08:14:19;;;;;;;15.07;5.37;;;;;;;10.16;47.68;96352.56;5091066;28;20505;-57
2024/01/24 08:17:01;;;;;;;12.10;4.23;;;;;;;10.33;47.00;96367.63;5091105;28;20440;-56
2024/01/24 08:19:29;;;;;;;7.03;3.60;;;;;;;10.06;47.30;96370.09;5091004;28;20444;-57
2024/01/24 08:21:58;;;;;;;5.33;4.77;;;;;;;10.18;48.99;96371.66;5090783;28;20440;-58
2024/01/24 08:24:27;;;;;;;9.97;5.27;;;;;;;10.58;47.27;96363.50;5090611;28;20435;-62
2024/01/24 08:26:56;;;;;;;5.37;3.03;;;;;;;10.80;45.89;96367.00;5091102;28;20504;-59
2024/01/24 08:29:26;;;;;;;5.40;3.33;;;;;;;11.27;46.35;96356.72;5076284;28;20456;-61
2024/01/24 08:32:05;;;;;;;2.43;2.33;;;;;;;11.16;44.79;96356.84;5071002;28;20445;-61
2024/01/24 08:34:36;;;;;;;3.93;3.63;;;;;;;10.35;46.33;96320.50;5071146;28;20433;-62
2024/01/24 08:37:06;;;;;;;5.70;2.90;;;;;;;11.35;44.78;96364.28;5070542;28;20433;-61
2024/01/24 08:39:35;;;;;;;12.10;6.87;;;;;;;10.99;45.84;96287.13;5070746;28;20498;-62
2024/01/24 08:42:04;;;;;;;2.93;2.70;;;;;;;13.18;42.80;96349.53;5070547;28;20476;-61
2024/01/24 08:44:34;;;;;;;17.73;3.90;;;;;;;13.31;43.14;96350.91;5072792;28;20440;-61
2024/01/24 08:47:03;;;;;;;5.33;2.63;;;;;;;14.09;41.70;96346.31;5074458;28;20610;-60
2024/01/24 08:49:32;;;;;;;2.77;2.57;;;;;;;14.19;40.86;96346.31;5075025;28;20444;-60
2024/01/24 08:52:01;;;;;;;4.87;2.07;;;;;;;14.35;40.50;96334.59;5083125;28;20429;-60
2024/01/24 08:54:31;;;;;;;9.50;3.97;;;;;;;13.14;41.69;96335.16;5074226;28;20516;-60
2024/01/24 08:57:00;;;;;;;8.20;3.60;;;;;;;13.55;42.77;96346.75;5085001;28;20441;-60
2024/01/24 08:59:29;;;;;;;4.50;4.27;;;;;;;13.38;43.00;96343.50;5094672;28;20475;-60
2024/01/24 09:02:01;;;;;;;9.40;3.70;;;;;;;13.57;41.00;96323.31;5094509;28;20448;-59
2024/01/24 09:04:30;;;;;;;7.63;4.33;;;;;;;13.07;41.02;96296.53;5094460;28;20526;-58
2024/01/24 09:06:59;;;;;;;3.40;3.20;;;;;;;12.91;42.20;96327.56;5094596;28;20498;-59
2024/01/24 09:09:30;;;;;;;15.57;3.30;;;;;;;13.80;41.11;96335.34;5094217;28;20625;-59
2024/01/24 09:11:59;;;;;;;3.50;3.20;;;;;;;12.77;42.82;96320.31;5094368;28;20444;-59
2024/01/24 09:14:28;;;;;;;7.43;3.10;;;;;;;12.60;42.97;96344.41;5093696;28;20447;-58
2024/01/24 09:16:57;;;;;;;2.00;1.90;;;;;;;12.44;43.41;96340.06;5094207;28;20439;-57
2024/01/24 09:19:27;;;;;;;1.77;1.67;;;;;;;13.08;42.82;96336.19;5094301;28;20436;-55
2024/01/24 09:21:56;;;;;;;2.07;1.97;;;;;;;13.12;41.60;96269.94;5092930;28;20448;-58
2024/01/24 09:24:25;;;;;;;2.77;1.60;;;;;;;12.84;42.04;96316.34;5093654;28;20436;-57
2024/01/24 09:26:55;;;;;;;0.90;0.90;;;;;;;13.79;41.60;96315.88;5093355;28;20468;-58
2024/01/24 09:29:23;;;;;;;2.40;2.17;;;;;;;12.92;41.83;96312.41;5068038;28;20790;-59
2024/01/24 09:31:52;;;;;;;3.30;1.90;;;;;;;13.60;40.89;96272.19;5093733;28;20502;-58
2024/01/24 09:34:20;;;;;;;3.27;2.43;;;;;;;14.60;40.12;96278.53;5093752;28;20444;-58
2024/01/24 09:36:51;;;;;;;14.93;5.20;;;;;;;14.88;40.00;96277.09;5093629;28;20443;-58
2024/01/24 09:39:19;;;;;;;3.47;3.27;;;;;;;14.85;38.37;96256.31;5093976;28;20444;-59
2024/01/24 09:41:51;;;;;;;6.70;3.07;;;;;;;15.04;38.73;96231.41;5094427;28;20447;-58
2024/01/24 09:44:20;;;;;;;1.60;1.50;;;;;;;15.93;37.91;96262.41;5093469;28;20439;-58
2024/01/24 09:46:52;;;;;;;2.67;2.30;;;;;;;16.74;37.29;96259.78;5093737;28;20940;-58
2024/01/24 09:49:20;;;;;;;2.30;1.73;;;;;;;16.19;38.73;96268.34;5094134;28;20446;-58
2024/01/24 09:51:53;;;;;;;3.70;3.20;;;;;;;15.91;36.16;96253.84;5093695;28;20444;-57
2024/01/24 09:54:24;;;;;;;4.97;2.10;;;;;;;15.73;38.52;96262.53;5085151;28;20472;-57
2024/01/24 09:56:54;;;;;;;1.13;1.03;;;;;;;17.33;36.38;96253.94;5091744;28;21011;-57
2024/01/24 09:59:22;;;;;;;1.50;1.40;;;;;;;16.24;36.43;96170.09;5085771;28;20468;-57
2024/01/24 10:01:51;;;;;;;2.03;1.93;;;;;;;17.21;35.54;96180.44;5093490;28;20448;-57
2024/01/24 10:04:20;;;;;;;1.13;1.13;;;;;;;17.80;34.16;96155.69;5093439;28;20448;-57
2024/01/24 10:06:49;;;;;;;0.80;0.80;;;;;;;18.29;34.43;96229.13;5066700;28;20472;-58
2024/01/24 10:09:20;;;;;;;1.50;1.40;;;;;;;17.92;35.07;96223.06;5092660;28;20976;-57
2024/01/24 10:11:49;;;;;;;7.33;2.43;;;;;;;16.61;34.89;96217.63;5093082;28;20960;-58
2024/01/24 10:14:19;;;;;;;3.03;1.40;;;;;;;17.77;34.12;96171.28;5093498;28;20944;-57
2024/01/24 10:16:48;;;;;;;5.30;2.73;;;;;;;18.20;33.90;96211.31;5088203;28;20505;-57
2024/01/24 10:19:18;;;;;;;2.57;1.40;;;;;;;18.73;32.58;96199.06;5087762;28;20539;-56
2024/01/24 10:21:49;;;;;;;1.63;1.53;;;;;;;17.68;33.74;96199.06;5093044;28;20474;-57
2024/01/24 10:24:21;;;;;;;3.30;2.50;;;;;;;17.10;34.86;96188.59;5092464;28;20960;-56
2024/01/24 10:26:49;;;;;;;13.00;3.87;;;;;;;17.58;35.08;96178.56;5092573;28;20464;-57
2024/01/24 10:29:18;;;;;;;5.53;2.20;;;;;;;17.73;33.52;96175.63;5086514;28;20437;-58
2024/01/24 10:31:47;;;;;;;3.57;2.53;;;;;;;18.59;33.36;96174.13;5087647;28;20441;-57
2024/01/24 10:34:16;;;;;;;2.77;2.57;;;;;;;19.45;33.10;96173.09;5092537;28;20959;-57
2024/01/24 10:36:46;;;;;;;2.17;2.03;;;;;;;19.48;32.43;96174.41;5092078;28;20464;-56
2024/01/24 10:39:17;;;;;;;7.20;2.83;;;;;;;19.33;32.04;96172.00;5092764;28;20914;-58
2024/01/24 10:41:54;;;;;;;4.37;2.63;;;;;;;19.00;32.58;96152.56;5092157;28;20553;-56
2024/01/24 10:44:26;;;;;;;0.70;0.70;;;;;;;20.24;31.60;96147.19;5092440;28;20451;-56
2024/01/24 10:46:55;;;;;;;6.73;1.43;;;;;;;19.88;31.97;96151.91;5092072;28;20547;-57
2024/01/24 10:49:25;;;;;;;1.13;1.13;;;;;;;20.66;30.57;96145.78;5092108;28;21006;-56
2024/01/24 10:51:55;;;;;;;1.03;0.93;;;;;;;20.83;30.36;96131.53;5092670;28;20436;-57
2024/01/24 10:54:25;;;;;;;2.40;2.13;;;;;;;21.52;29.13;96117.03;5091338;28;20468;-57
2024/01/24 10:56:59;;;;;;;1.63;1.63;;;;;;;21.70;29.10;96117.00;5092399;28;20432;-57
2024/01/24 10:59:33;;;;;;;1.23;1.17;;;;;;;20.63;28.99;96062.91;5089503;28;20473;-57
2024/01/24 11:02:02;;;;;;;1.10;0.77;;;;;;;20.22;28.50;96030.13;5092273;28;20826;-58
2024/01/24 11:04:31;;;;;;;1.20;0.73;;;;;;;21.20;29.75;96111.34;5091578;28;20448;-57
2024/01/24 11:07:05;;;;;;;1.20;0.87;;;;;;;20.59;30.43;96110.41;5092382;28;20467;-57
2024/01/24 11:09:42;;;;;;;1.87;1.70;;;;;;;20.39;29.20;96110.22;5091642;28;20825;-57
2024/01/24 11:12:13;;;;;;;0.50;0.50;;;;;;;21.46;28.15;96090.53;5092279;28;20446;-57
2024/01/24 11:14:46;;;;;;;0.40;0.30;;;;;;;22.56;28.82;96047.31;5092010;28;20476;-56
2024/01/24 11:17:15;;;;;;;0.97;0.87;;;;;;;22.29;27.88;96091.00;5090890;28;20440;-56
2024/01/24 11:19:44;;;;;;;3.23;1.73;;;;;;;21.77;28.35;96083.03;5087341;28;20455;-56
2024/01/24 11:22:23;;;;;;;1.47;0.90;;;;;;;21.24;28.48;96080.72;5078162;28;20441;-58
2024/01/24 11:24:59;;;;;;;0.63;0.63;;;;;;;21.48;29.33;96078.31;5091263;28;20591;-56
2024/01/24 11:27:33;;;;;;;1.07;1.00;;;;;;;20.79;29.24;96012.03;5090927;28;20483;-57
2024/01/24 11:30:36;;;;;;;0.90;0.60;;;;;;;21.75;28.13;96068.28;5091836;28;20506;-57
2024/01/24 11:33:05;;;;;;;2.10;0.97;;;;;;;21.53;28.73;96059.25;5083018;28;20432;-57
2024/01/24 11:35:37;;;;;;;1.27;0.93;;;;;;;21.10;28.78;96065.81;5091657;28;20852;-57
2024/01/24 11:38:08;;;;;;;1.30;1.13;;;;;;;21.00;29.77;96058.03;5091861;28;20815;-57
2024/01/24 11:40:53;;;;;;;0.97;0.87;;;;;;;20.79;29.11;96050.56;5068035;28;20436;-57
2024/01/24 11:43:28;;;;;;;1.97;0.60;;;;;;;21.52;29.34;96041.50;5090713;28;20440;-56
2024/01/24 11:46:03;;;;;;;0.87;0.87;;;;;;;21.71;30.00;96016.03;5091321;28;20451;-58
2024/01/24 11:48:34;;;;;;;0.93;0.93;;;;;;;20.99;28.76;96034.88;5091706;28;20507;-57